> <
  • 1
  • 2

Novidades

  • Temos o prazer de lhe apresentar… Ler mais +
  • Está disponível a secção Multimédia no… Ler mais +
  • 1
[source: ADDS]
METAR
LPPR 231500Z 32012KT CAVOK 21/17 Q1016 =
TAF
TAF LPPR 231100Z 2312/2412 30005KT CAVOK BECMG 2312/2314 32012KT BECMG 2320/2323 VRB03KT 9999 SCT004 BECMG 2400/2402 22005KT 3000 BR SCT002 BKN004 PROB40 TEMPO 2402/2409 0200 FG VV001 BECMG 2409/2412 9999 NSW SCT015 =

contactos